Time;durP1;ratioP1;P1;durP2;ratioP2;P2;SDS_P1;SDS_P2;PMS_P1;PMS_P2;Temp;Humidity;BMP_temperature;BMP_pressure;BME280_temperature;BME280_humidity;BME280_pressure;Samples;Min_cycle;Max_cycle;Signal;HPM_P1;HPM_P2
2022/08/11 00:08:20;;;;;;;;;;;;;;;24.52;34.54;100819.59;20492560;28;97233;-74
2022/08/11 00:18:20;;;;;;;;;;;;;;;24.48;34.67;100806.78;20456484;28;98242;-74
2022/08/11 00:28:28;;;;;;;;;;;;;;;24.44;34.77;100806.22;20482345;28;98602;-75
2022/08/11 00:38:30;;;;;;;;;;;;;;;24.40;35.30;100804.78;20488776;28;97446;-75
2022/08/11 00:48:42;;;;;;;;;;;;;;;24.24;35.54;100810.53;20499637;28;97740;-74
2022/08/11 00:59:13;;;;;;;;;;;;;;;24.14;35.77;100802.53;20496878;28;98061;-74
2022/08/11 01:09:23;;;;;;;;;;;;;;;24.07;36.20;100811.94;20492495;28;97980;-74
2022/08/11 01:19:43;;;;;;;;;;;;;;;23.89;36.38;100801.88;20501969;28;100771;-74
2022/08/11 01:30:02;;;;;;;;;;;;;;;23.91;36.75;100796.47;20488362;28;98725;-74
2022/08/11 01:40:42;;;;;;;;;;;;;;;23.78;36.99;100802.78;20482258;28;98367;-74
2022/08/11 01:50:42;;;;;;;;;;;;;;;23.74;37.18;100790.78;20537740;28;97810;-74
2022/08/11 02:01:06;;;;;;;;;;;;;;;23.67;37.22;100795.72;20484290;28;97611;-75
2022/08/11 02:11:30;;;;;;;;;;;;;;;23.65;37.20;100786.22;20489072;28;98876;-74
2022/08/11 02:42:51;;;;;;;;;;;;;;;23.63;37.77;100775.78;20455776;28;97793;-74
2022/08/11 02:52:57;;;;;;;;;;;;;;;23.67;37.62;100764.00;20478321;28;99088;-74
2022/08/11 03:03:15;;;;;;;;;;;;;;;23.72;37.57;100758.31;20468458;28;98541;-75
2022/08/11 03:23:57;;;;;;;;;;;;;;;23.63;37.71;100772.28;20470844;28;100144;-74
2022/08/11 03:34:07;;;;;;;;;;;;;;;23.62;37.52;100781.19;20473151;28;99099;-74
2022/08/11 03:44:14;;;;;;;;;;;;;;;23.51;38.05;100774.16;20466370;28;100326;-73
2022/08/11 03:54:17;;;;;;;;;;;;;;;23.43;38.13;100776.56;20471495;28;99101;-74
2022/08/11 04:04:50;;;;;;;;;;;;;;;23.46;38.10;100787.75;20460086;28;98605;-75
2022/08/11 04:25:32;;;;;;;;;;;;;;;23.18;38.55;100787.31;20488176;28;101066;-77
2022/08/11 04:35:32;;;;;;;;;;;;;;;22.96;39.00;100790.78;20462158;28;98957;-75
2022/08/11 04:45:44;;;;;;;;;;;;;;;23.11;39.26;100795.81;20466846;28;98868;-74
2022/08/11 05:06:59;;;;;;;;;;;;;;;22.68;40.03;100797.38;20484459;28;98456;-73
2022/08/11 05:58:37;;;;;;;;;;;;;;;23.18;38.63;100812.91;20498861;28;97708;-75
2022/08/11 06:08:37;;;;;;;;;;;;;;;23.22;38.75;100813.47;20491259;27;98410;-75
2022/08/11 06:18:38;;;;;;;;;;;;;;;23.40;38.47;100813.81;20484278;28;99588;-75
2022/08/11 06:28:40;;;;;;;;;;;;;;;23.57;38.33;100815.09;20471490;28;102057;-76
2022/08/11 06:38:40;;;;;;;;;;;;;;;23.67;38.11;100811.56;20476703;28;100648;-76
2022/08/11 06:48:43;;;;;;;;;;;;;;;23.69;37.72;100800.88;20485094;28;98047;-76
2022/08/11 07:29:59;;;;;;;;;;;;;;;24.27;37.39;100794.41;20486640;28;98629;-75
2022/08/11 07:40:01;;;;;;;;;;;;;;;24.40;37.78;100780.94;20475923;28;98300;-77
2022/08/11 08:21:10;;;;;;;;;;;;;;;24.74;37.59;100754.25;20493319;28;97780;-75
2022/08/11 08:31:11;;;;;;;;;;;;;;;24.81;37.27;100750.09;20498263;28;101294;-75
2022/08/11 08:41:12;;;;;;;;;;;;;;;24.87;37.24;100743.44;20499385;28;100965;-75
2022/08/11 09:01:52;;;;;;;;;;;;;;;24.99;37.33;100723.00;20501289;28;98425;-74
2022/08/11 09:11:54;;;;;;;;;;;;;;;25.02;37.21;100718.22;20504527;28;97888;-76
2022/08/11 09:32:14;;;;;;;;;;;;;;;25.12;37.13;100699.72;20503416;28;100924;-76
2022/08/11 09:42:15;;;;;;;;;;;;;;;25.17;37.16;100704.59;20499212;28;98495;-75
2022/08/11 09:52:17;;;;;;;;;;;;;;;25.21;37.12;100687.47;20507655;28;100020;-74
2022/08/11 10:02:21;;;;;;;;;;;;;;;25.25;36.87;100679.09;20489558;28;97844;-76
2022/08/11 10:12:23;;;;;;;;;;;;;;;25.30;36.92;100672.53;20506746;28;101322;-75
2022/08/11 10:43:04;;;;;;;;;;;;;;;25.41;37.06;100651.19;20509783;28;97399;-75
2022/08/11 11:03:34;;;;;;;;;;;;;;;25.48;37.23;100623.16;20502949;28;98324;-74
2022/08/11 11:24:12;;;;;;;;;;;;;;;25.56;37.51;100609.19;20512501;28;97735;-76
2022/08/11 11:34:22;;;;;;;;;;;;;;;25.59;37.29;100595.66;20500804;28;97724;-74
2022/08/11 11:44:23;;;;;;;;;;;;;;;25.62;37.21;100586.56;20498696;28;97691;-75
2022/08/11 11:54:25;;;;;;;;;;;;;;;25.63;37.15;100590.91;20500813;28;98503;-76
2022/08/11 12:04:26;;;;;;;;;;;;;;;25.65;37.45;100570.38;20491802;28;98530;-75
2022/08/11 12:14:27;;;;;;;;;;;;;;;25.72;37.45;100560.88;20506027;28;99282;-75
2022/08/11 12:35:13;;;;;;;;;;;;;;;25.83;37.83;100552.72;20581010;28;98084;-75
2022/08/11 12:45:29;;;;;;;;;;;;;;;25.85;37.58;100541.97;20512630;28;99155;-75
2022/08/11 13:05:50;;;;;;;;;;;;;;;25.94;37.68;100526.97;20514054;28;99521;-75
2022/08/11 13:15:51;;;;;;;;;;;;;;;25.97;37.63;100521.38;20512209;28;98785;-76
2022/08/11 13:25:53;;;;;;;;;;;;;;;25.99;37.75;100511.47;20525132;28;97356;-76
2022/08/11 13:35:54;;;;;;;;;;;;;;;26.03;37.81;100504.88;20508397;28;97710;-74
2022/08/11 13:46:17;;;;;;;;;;;;;;;26.05;37.83;100495.78;20516438;28;98389;-75
2022/08/11 13:56:15;;;;;;;;;;;;;;;26.09;37.37;100480.44;20505872;28;100943;-75
2022/08/11 14:06:17;;;;;;;;;;;;;;;26.12;37.43;100482.81;20503748;28;97797;-75
2022/08/11 14:16:26;;;;;;;;;;;;;;;26.14;37.69;100478.16;20513110;28;97004;-74
2022/08/11 14:26:27;;;;;;;;;;;;;;;26.16;37.32;100475.38;20501348;28;99077;-76
2022/08/11 14:36:33;;;;;;;;;;;;;;;26.21;35.10;100471.25;20492169;28;97737;-74
2022/08/11 14:56:53;;;;;;;;;;;;;;;26.23;32.80;100457.84;20496491;28;98963;-75
2022/08/11 15:06:53;;;;;;;;;;;;;;;26.26;31.43;100454.91;20489827;28;98350;-75
2022/08/11 15:17:09;;;;;;;;;;;;;;;26.26;31.42;100459.38;20497147;28;98745;-75
2022/08/11 15:37:35;;;;;;;;;;;;;;;26.25;31.34;100447.09;20492263;28;98370;-76
2022/08/11 15:47:41;;;;;;;;;;;;;;;26.23;31.14;100451.72;20493109;28;97941;-75
2022/08/11 16:08:03;;;;;;;;;;;;;;;26.19;31.69;100448.53;20476284;28;99312;-74
2022/08/11 16:18:05;;;;;;;;;;;;;;;26.16;32.29;100448.84;20486366;28;97755;-74
2022/08/11 16:28:06;;;;;;;;;;;;;;;26.14;32.28;100441.00;20496209;28;98053;-75
2022/08/11 16:48:34;;;;;;;;;;;;;;;26.13;32.53;100433.19;20489198;28;97391;-77
2022/08/11 17:19:20;;;;;;;;;;;;;;;26.07;32.23;100468.31;20502894;28;101338;-77
2022/08/11 17:29:23;;;;;;;;;;;;;;;26.06;32.11;100472.72;20498576;28;97287;-77
2022/08/11 17:39:27;;;;;;;;;;;;;;;26.02;32.79;100493.44;20497136;28;97704;-77
2022/08/11 17:49:38;;;;;;;;;;;;;;;26.02;34.46;100505.84;20505806;28;99563;-76
2022/08/11 17:59:50;;;;;;;;;;;;;;;25.98;34.69;100513.28;20500172;28;98804;-79
